sensor_id;sensor_type;location;lat;lon;timestamp;temperature;humidity
28171;DHT22;15458;53.346;-1.688;2022-10-16T00:01:20;9.40;99.90
28171;DHT22;15458;53.346;-1.688;2022-10-16T00:03:47;9.50;99.90
28171;DHT22;15458;53.346;-1.688;2022-10-16T00:06:14;9.50;99.90
28171;DHT22;15458;53.346;-1.688;2022-10-16T00:08:41;9.50;99.90
28171;DHT22;15458;53.346;-1.688;2022-10-16T00:11:22;9.50;99.90
28171;DHT22;15458;53.346;-1.688;2022-10-16T00:13:49;9.50;99.90
28171;DHT22;15458;53.346;-1.688;2022-10-16T00:16:16;9.50;99.90
28171;DHT22;15458;53.346;-1.688;2022-10-16T00:18:42;9.50;99.90
28171;DHT22;15458;53.346;-1.688;2022-10-16T00:21:16;9.40;99.90
28171;DHT22;15458;53.346;-1.688;2022-10-16T00:23:42;9.40;99.90
28171;DHT22;15458;53.346;-1.688;2022-10-16T00:26:11;9.40;99.90
28171;DHT22;15458;53.346;-1.688;2022-10-16T00:28:37;9.50;99.90
28171;DHT22;15458;53.346;-1.688;2022-10-16T00:31:09;9.50;99.90
28171;DHT22;15458;53.346;-1.688;2022-10-16T00:33:36;9.50;99.90
28171;DHT22;15458;53.346;-1.688;2022-10-16T00:36:03;9.50;99.90
28171;DHT22;15458;53.346;-1.688;2022-10-16T00:38:30;9.50;99.90
28171;DHT22;15458;53.346;-1.688;2022-10-16T00:40:56;9.60;99.90
28171;DHT22;15458;53.346;-1.688;2022-10-16T00:46:21;9.60;99.90
28171;DHT22;15458;53.346;-1.688;2022-10-16T00:49:02;9.60;99.90
28171;DHT22;15458;53.346;-1.688;2022-10-16T00:51:33;9.50;99.90
28171;DHT22;15458;53.346;-1.688;2022-10-16T00:54:00;9.50;99.90
28171;DHT22;15458;53.346;-1.688;2022-10-16T00:56:26;9.50;99.90
28171;DHT22;15458;53.346;-1.688;2022-10-16T00:58:52;9.50;99.90
28171;DHT22;15458;53.346;-1.688;2022-10-16T01:01:18;9.50;99.90
28171;DHT22;15458;53.346;-1.688;2022-10-16T01:03:43;9.40;99.90
28171;DHT22;15458;53.346;-1.688;2022-10-16T01:09:02;9.50;99.90
28171;DHT22;15458;53.346;-1.688;2022-10-16T01:11:43;9.50;99.90
28171;DHT22;15458;53.346;-1.688;2022-10-16T01:14:32;9.40;99.90
28171;DHT22;15458;53.346;-1.688;2022-10-16T01:17:12;9.50;99.90
28171;DHT22;15458;53.346;-1.688;2022-10-16T01:22:24;9.50;99.90
28171;DHT22;15458;53.346;-1.688;2022-10-16T01:24:53;9.50;99.90
28171;DHT22;15458;53.346;-1.688;2022-10-16T01:27:25;9.50;99.90
28171;DHT22;15458;53.346;-1.688;2022-10-16T01:29:59;9.50;99.90
28171;DHT22;15458;53.346;-1.688;2022-10-16T01:32:38;9.50;99.90
28171;DHT22;15458;53.346;-1.688;2022-10-16T01:35:21;9.50;99.90
28171;DHT22;15458;53.346;-1.688;2022-10-16T01:37:50;9.50;99.90
28171;DHT22;15458;53.346;-1.688;2022-10-16T01:40:20;9.60;99.90
28171;DHT22;15458;53.346;-1.688;2022-10-16T01:42:56;9.60;99.90
28171;DHT22;15458;53.346;-1.688;2022-10-16T01:45:27;9.70;99.90
28171;DHT22;15458;53.346;-1.688;2022-10-16T01:47:54;9.70;99.90
28171;DHT22;15458;53.346;-1.688;2022-10-16T01:50:21;9.70;99.90
28171;DHT22;15458;53.346;-1.688;2022-10-16T01:52:50;9.70;99.90
28171;DHT22;15458;53.346;-1.688;2022-10-16T01:55:27;9.70;99.90
28171;DHT22;15458;53.346;-1.688;2022-10-16T01:57:55;9.70;99.90
28171;DHT22;15458;53.346;-1.688;2022-10-16T02:00:22;9.70;99.90
28171;DHT22;15458;53.346;-1.688;2022-10-16T02:02:51;9.60;99.90
28171;DHT22;15458;53.346;-1.688;2022-10-16T02:05:24;9.60;99.90
28171;DHT22;15458;53.346;-1.688;2022-10-16T02:07:51;9.60;99.90
28171;DHT22;15458;53.346;-1.688;2022-10-16T02:10:18;9.60;99.90
28171;DHT22;15458;53.346;-1.688;2022-10-16T02:12:53;9.50;99.90
28171;DHT22;15458;53.346;-1.688;2022-10-16T02:15:19;9.50;99.90
28171;DHT22;15458;53.346;-1.688;2022-10-16T02:17:45;9.60;99.90
28171;DHT22;15458;53.346;-1.688;2022-10-16T02:20:11;9.60;99.90
28171;DHT22;15458;53.346;-1.688;2022-10-16T02:22:43;9.60;99.90
28171;DHT22;15458;53.346;-1.688;2022-10-16T02:27:57;9.60;99.90
28171;DHT22;15458;53.346;-1.688;2022-10-16T02:32:56;9.60;99.90
28171;DHT22;15458;53.346;-1.688;2022-10-16T02:35:24;9.60;99.90
28171;DHT22;15458;53.346;-1.688;2022-10-16T02:37:50;9.60;99.90
28171;DHT22;15458;53.346;-1.688;2022-10-16T02:40:18;9.60;99.90
28171;DHT22;15458;53.346;-1.688;2022-10-16T02:42:43;9.60;99.90
28171;DHT22;15458;53.346;-1.688;2022-10-16T02:45:12;9.60;99.90
28171;DHT22;15458;53.346;-1.688;2022-10-16T02:47:38;9.50;99.90
28171;DHT22;15458;53.346;-1.688;2022-10-16T02:50:04;9.60;99.90
28171;DHT22;15458;53.346;-1.688;2022-10-16T02:52:30;9.60;99.90
28171;DHT22;15458;53.346;-1.688;2022-10-16T02:54:56;9.60;99.90
28171;DHT22;15458;53.346;-1.688;2022-10-16T02:57:21;9.60;99.90
28171;DHT22;15458;53.346;-1.688;2022-10-16T02:59:47;9.70;99.90
28171;DHT22;15458;53.346;-1.688;2022-10-16T03:02:13;9.70;99.90
28171;DHT22;15458;53.346;-1.688;2022-10-16T03:04:38;9.70;99.90
28171;DHT22;15458;53.346;-1.688;2022-10-16T03:07:04;9.60;99.90
28171;DHT22;15458;53.346;-1.688;2022-10-16T03:09:30;9.60;99.90
28171;DHT22;15458;53.346;-1.688;2022-10-16T03:11:55;9.60;99.90
28171;DHT22;15458;53.346;-1.688;2022-10-16T03:14:21;9.60;99.90
28171;DHT22;15458;53.346;-1.688;2022-10-16T03:16:47;9.60;99.90
28171;DHT22;15458;53.346;-1.688;2022-10-16T03:19:12;9.60;99.90
28171;DHT22;15458;53.346;-1.688;2022-10-16T03:21:38;9.60;99.90
28171;DHT22;15458;53.346;-1.688;2022-10-16T03:24:04;9.60;99.90
28171;DHT22;15458;53.346;-1.688;2022-10-16T03:26:33;9.60;99.90
28171;DHT22;15458;53.346;-1.688;2022-10-16T03:28:59;9.70;99.90
28171;DHT22;15458;53.346;-1.688;2022-10-16T03:31:24;9.60;99.90
28171;DHT22;15458;53.346;-1.688;2022-10-16T03:33:50;9.60;99.90
28171;DHT22;15458;53.346;-1.688;2022-10-16T03:36:18;9.60;99.90
28171;DHT22;15458;53.346;-1.688;2022-10-16T03:38:44;9.60;99.90
28171;DHT22;15458;53.346;-1.688;2022-10-16T03:41:09;9.50;99.90
28171;DHT22;15458;53.346;-1.688;2022-10-16T03:43:35;9.50;99.90
28171;DHT22;15458;53.346;-1.688;2022-10-16T03:46:03;9.50;99.90
28171;DHT22;15458;53.346;-1.688;2022-10-16T03:48:29;9.50;99.90
28171;DHT22;15458;53.346;-1.688;2022-10-16T03:50:55;9.50;99.90
28171;DHT22;15458;53.346;-1.688;2022-10-16T03:53:21;9.40;99.90
28171;DHT22;15458;53.346;-1.688;2022-10-16T03:55:47;9.40;99.90
28171;DHT22;15458;53.346;-1.688;2022-10-16T03:58:12;9.40;99.90
28171;DHT22;15458;53.346;-1.688;2022-10-16T04:00:45;9.40;99.90
28171;DHT22;15458;53.346;-1.688;2022-10-16T04:03:11;9.40;99.90
28171;DHT22;15458;53.346;-1.688;2022-10-16T04:05:37;9.40;99.90
28171;DHT22;15458;53.346;-1.688;2022-10-16T04:08:03;9.40;99.90
28171;DHT22;15458;53.346;-1.688;2022-10-16T04:10:29;9.40;99.90
28171;DHT22;15458;53.346;-1.688;2022-10-16T04:12:55;9.30;99.90
28171;DHT22;15458;53.346;-1.688;2022-10-16T04:15:22;9.30;99.90
28171;DHT22;15458;53.346;-1.688;2022-10-16T04:17:48;9.30;99.90
28171;DHT22;15458;53.346;-1.688;2022-10-16T04:20:14;9.20;99.90
28171;DHT22;15458;53.346;-1.688;2022-10-16T04:22:39;9.20;99.90
28171;DHT22;15458;53.346;-1.688;2022-10-16T04:25:05;9.10;99.90
28171;DHT22;15458;53.346;-1.688;2022-10-16T04:27:31;9.20;99.90
28171;DHT22;15458;53.346;-1.688;2022-10-16T04:30:00;9.10;99.90
28171;DHT22;15458;53.346;-1.688;2022-10-16T04:32:26;9.10;99.90
28171;DHT22;15458;53.346;-1.688;2022-10-16T04:34:52;9.00;99.90
28171;DHT22;15458;53.346;-1.688;2022-10-16T04:37:18;9.00;99.90
28171;DHT22;15458;53.346;-1.688;2022-10-16T04:39:43;8.90;99.90
28171;DHT22;15458;53.346;-1.688;2022-10-16T04:42:10;8.90;99.90
28171;DHT22;15458;53.346;-1.688;2022-10-16T04:44:36;8.80;99.90
28171;DHT22;15458;53.346;-1.688;2022-10-16T04:47:02;8.80;99.90
28171;DHT22;15458;53.346;-1.688;2022-10-16T04:49:28;8.80;99.90
28171;DHT22;15458;53.346;-1.688;2022-10-16T04:51:53;8.80;99.90
28171;DHT22;15458;53.346;-1.688;2022-10-16T04:54:19;8.80;99.90
28171;DHT22;15458;53.346;-1.688;2022-10-16T04:56:45;8.70;99.90
28171;DHT22;15458;53.346;-1.688;2022-10-16T04:59:16;8.70;99.90
28171;DHT22;15458;53.346;-1.688;2022-10-16T05:01:42;8.70;99.90
28171;DHT22;15458;53.346;-1.688;2022-10-16T05:04:08;8.70;99.90
28171;DHT22;15458;53.346;-1.688;2022-10-16T05:06:34;8.70;99.90
28171;DHT22;15458;53.346;-1.688;2022-10-16T05:09:00;8.60;99.90
28171;DHT22;15458;53.346;-1.688;2022-10-16T05:11:25;8.60;99.90
28171;DHT22;15458;53.346;-1.688;2022-10-16T05:13:51;8.60;99.90
28171;DHT22;15458;53.346;-1.688;2022-10-16T05:16:17;8.50;99.90
28171;DHT22;15458;53.346;-1.688;2022-10-16T05:18:45;8.50;99.90
28171;DHT22;15458;53.346;-1.688;2022-10-16T05:21:12;8.40;99.90
28171;DHT22;15458;53.346;-1.688;2022-10-16T05:23:38;8.40;99.90
28171;DHT22;15458;53.346;-1.688;2022-10-16T05:26:04;8.40;99.90
28171;DHT22;15458;53.346;-1.688;2022-10-16T05:28:31;8.30;99.90
28171;DHT22;15458;53.346;-1.688;2022-10-16T05:30:57;8.30;99.90
28171;DHT22;15458;53.346;-1.688;2022-10-16T05:33:25;8.30;99.90
28171;DHT22;15458;53.346;-1.688;2022-10-16T05:35:51;8.30;99.90
28171;DHT22;15458;53.346;-1.688;2022-10-16T05:38:17;8.30;99.90
28171;DHT22;15458;53.346;-1.688;2022-10-16T05:40:44;8.20;99.90
28171;DHT22;15458;53.346;-1.688;2022-10-16T05:43:15;8.20;99.90
28171;DHT22;15458;53.346;-1.688;2022-10-16T05:45:41;8.20;99.90
28171;DHT22;15458;53.346;-1.688;2022-10-16T05:48:07;8.20;99.90
28171;DHT22;15458;53.346;-1.688;2022-10-16T05:50:35;8.10;99.90
28171;DHT22;15458;53.346;-1.688;2022-10-16T05:53:01;8.10;99.90
28171;DHT22;15458;53.346;-1.688;2022-10-16T05:55:26;8.10;99.90
28171;DHT22;15458;53.346;-1.688;2022-10-16T05:57:54;8.00;99.90
28171;DHT22;15458;53.346;-1.688;2022-10-16T06:00:20;8.00;99.90
28171;DHT22;15458;53.346;-1.688;2022-10-16T06:02:46;8.00;99.90
28171;DHT22;15458;53.346;-1.688;2022-10-16T06:05:11;7.90;99.90
28171;DHT22;15458;53.346;-1.688;2022-10-16T06:07:37;7.90;99.90
28171;DHT22;15458;53.346;-1.688;2022-10-16T06:10:04;7.90;99.90
28171;DHT22;15458;53.346;-1.688;2022-10-16T06:12:29;7.90;99.90
28171;DHT22;15458;53.346;-1.688;2022-10-16T06:14:55;7.90;99.90
28171;DHT22;15458;53.346;-1.688;2022-10-16T06:17:21;7.90;99.90
28171;DHT22;15458;53.346;-1.688;2022-10-16T06:19:46;7.80;99.90
28171;DHT22;15458;53.346;-1.688;2022-10-16T06:22:12;7.80;99.90
28171;DHT22;15458;53.346;-1.688;2022-10-16T06:24:38;7.80;99.90
28171;DHT22;15458;53.346;-1.688;2022-10-16T06:27:04;7.80;99.90
28171;DHT22;15458;53.346;-1.688;2022-10-16T06:29:31;7.70;99.90
28171;DHT22;15458;53.346;-1.688;2022-10-16T06:31:57;7.70;99.90
28171;DHT22;15458;53.346;-1.688;2022-10-16T06:34:23;7.70;99.90
28171;DHT22;15458;53.346;-1.688;2022-10-16T06:36:48;7.70;99.90
28171;DHT22;15458;53.346;-1.688;2022-10-16T06:39:14;7.70;99.90
28171;DHT22;15458;53.346;-1.688;2022-10-16T06:41:39;7.70;99.90
28171;DHT22;15458;53.346;-1.688;2022-10-16T06:44:06;7.60;99.90
28171;DHT22;15458;53.346;-1.688;2022-10-16T06:46:33;7.60;99.90
28171;DHT22;15458;53.346;-1.688;2022-10-16T06:48:59;7.60;99.90
28171;DHT22;15458;53.346;-1.688;2022-10-16T06:51:25;7.60;99.90
28171;DHT22;15458;53.346;-1.688;2022-10-16T06:53:53;7.60;99.90
28171;DHT22;15458;53.346;-1.688;2022-10-16T06:56:24;7.60;99.90
28171;DHT22;15458;53.346;-1.688;2022-10-16T06:58:58;7.60;99.90
28171;DHT22;15458;53.346;-1.688;2022-10-16T07:01:27;7.60;99.90
28171;DHT22;15458;53.346;-1.688;2022-10-16T07:03:53;7.50;99.90
28171;DHT22;15458;53.346;-1.688;2022-10-16T07:06:21;7.50;99.90
28171;DHT22;15458;53.346;-1.688;2022-10-16T07:08:51;7.50;99.90
28171;DHT22;15458;53.346;-1.688;2022-10-16T07:13:49;7.50;99.90
28171;DHT22;15458;53.346;-1.688;2022-10-16T07:16:18;7.40;99.90
28171;DHT22;15458;53.346;-1.688;2022-10-16T07:18:44;7.40;99.90
28171;DHT22;15458;53.346;-1.688;2022-10-16T07:21:14;7.50;99.90
28171;DHT22;15458;53.346;-1.688;2022-10-16T07:23:40;7.40;99.90
28171;DHT22;15458;53.346;-1.688;2022-10-16T07:26:08;7.50;99.90
28171;DHT22;15458;53.346;-1.688;2022-10-16T07:28:34;7.50;99.90
28171;DHT22;15458;53.346;-1.688;2022-10-16T07:31:04;7.50;99.90
28171;DHT22;15458;53.346;-1.688;2022-10-16T07:33:31;7.50;99.90
28171;DHT22;15458;53.346;-1.688;2022-10-16T07:35:57;7.50;99.90
28171;DHT22;15458;53.346;-1.688;2022-10-16T07:38:23;7.50;99.90
28171;DHT22;15458;53.346;-1.688;2022-10-16T07:40:56;7.50;99.90
28171;DHT22;15458;53.346;-1.688;2022-10-16T07:43:22;7.50;99.90
28171;DHT22;15458;53.346;-1.688;2022-10-16T07:45:49;7.50;99.90
28171;DHT22;15458;53.346;-1.688;2022-10-16T07:48:16;7.50;99.90
28171;DHT22;15458;53.346;-1.688;2022-10-16T07:50:41;7.50;99.90
28171;DHT22;15458;53.346;-1.688;2022-10-16T07:53:08;7.50;99.90
28171;DHT22;15458;53.346;-1.688;2022-10-16T07:55:33;7.50;99.90
28171;DHT22;15458;53.346;-1.688;2022-10-16T07:57:59;7.60;99.90
28171;DHT22;15458;53.346;-1.688;2022-10-16T08:00:27;7.60;99.90
28171;DHT22;15458;53.346;-1.688;2022-10-16T08:02:53;7.60;99.90
28171;DHT22;15458;53.346;-1.688;2022-10-16T08:05:19;7.60;99.90
28171;DHT22;15458;53.346;-1.688;2022-10-16T08:07:49;7.60;99.90
28171;DHT22;15458;53.346;-1.688;2022-10-16T08:10:20;7.70;99.90
28171;DHT22;15458;53.346;-1.688;2022-10-16T08:12:46;7.70;99.90
28171;DHT22;15458;53.346;-1.688;2022-10-16T08:15:12;7.80;99.90
28171;DHT22;15458;53.346;-1.688;2022-10-16T08:17:44;7.90;99.90
28171;DHT22;15458;53.346;-1.688;2022-10-16T08:20:10;7.90;99.90
28171;DHT22;15458;53.346;-1.688;2022-10-16T08:22:36;8.00;99.90
28171;DHT22;15458;53.346;-1.688;2022-10-16T08:25:05;8.00;99.90
28171;DHT22;15458;53.346;-1.688;2022-10-16T08:27:34;8.10;99.90
28171;DHT22;15458;53.346;-1.688;2022-10-16T08:30:00;8.20;99.90
28171;DHT22;15458;53.346;-1.688;2022-10-16T08:32:26;8.30;99.90
28171;DHT22;15458;53.346;-1.688;2022-10-16T08:34:51;8.40;99.90
28171;DHT22;15458;53.346;-1.688;2022-10-16T08:37:17;8.40;99.90
28171;DHT22;15458;53.346;-1.688;2022-10-16T08:39:42;8.50;99.90
28171;DHT22;15458;53.346;-1.688;2022-10-16T08:45:10;8.70;99.90
28171;DHT22;15458;53.346;-1.688;2022-10-16T08:47:49;8.70;99.90
28171;DHT22;15458;53.346;-1.688;2022-10-16T08:50:24;8.80;99.90
28171;DHT22;15458;53.346;-1.688;2022-10-16T08:52:50;8.90;99.90
28171;DHT22;15458;53.346;-1.688;2022-10-16T08:55:41;9.00;99.90
28171;DHT22;15458;53.346;-1.688;2022-10-16T08:58:23;9.10;99.90
28171;DHT22;15458;53.346;-1.688;2022-10-16T09:00:58;9.20;99.90
28171;DHT22;15458;53.346;-1.688;2022-10-16T09:15:23;9.60;99.90
28171;DHT22;15458;53.346;-1.688;2022-10-16T09:18:30;9.70;99.90
28171;DHT22;15458;53.346;-1.688;2022-10-16T09:24:34;10.00;99.90
28171;DHT22;15458;53.346;-1.688;2022-10-16T09:27:03;10.20;99.90
28171;DHT22;15458;53.346;-1.688;2022-10-16T09:29:42;10.40;99.90
28171;DHT22;15458;53.346;-1.688;2022-10-16T09:32:19;10.60;99.90
28171;DHT22;15458;53.346;-1.688;2022-10-16T09:35:14;10.80;99.90
28171;DHT22;15458;53.346;-1.688;2022-10-16T09:37:45;11.00;99.90
28171;DHT22;15458;53.346;-1.688;2022-10-16T09:43:32;11.60;99.90
28171;DHT22;15458;53.346;-1.688;2022-10-16T09:46:05;11.90;99.90
28171;DHT22;15458;53.346;-1.688;2022-10-16T09:48:43;12.10;99.90
28171;DHT22;15458;53.346;-1.688;2022-10-16T09:51:26;12.30;99.90
28171;DHT22;15458;53.346;-1.688;2022-10-16T09:54:21;12.70;99.90
28171;DHT22;15458;53.346;-1.688;2022-10-16T09:57:16;13.00;99.90
28171;DHT22;15458;53.346;-1.688;2022-10-16T09:59:54;13.30;99.90
28171;DHT22;15458;53.346;-1.688;2022-10-16T10:02:34;13.50;99.90
28171;DHT22;15458;53.346;-1.688;2022-10-16T10:05:00;13.60;99.90
28171;DHT22;15458;53.346;-1.688;2022-10-16T10:07:29;13.80;99.90
28171;DHT22;15458;53.346;-1.688;2022-10-16T10:09:59;14.00;99.40
28171;DHT22;15458;53.346;-1.688;2022-10-16T10:12:32;14.10;97.10
28171;DHT22;15458;53.346;-1.688;2022-10-16T10:15:20;14.20;96.00
28171;DHT22;15458;53.346;-1.688;2022-10-16T10:17:51;14.40;95.40
28171;DHT22;15458;53.346;-1.688;2022-10-16T10:20:34;14.50;94.00
28171;DHT22;15458;53.346;-1.688;2022-10-16T10:23:21;14.50;93.40
28171;DHT22;15458;53.346;-1.688;2022-10-16T10:28:47;14.90;92.50
28171;DHT22;15458;53.346;-1.688;2022-10-16T10:31:53;15.00;91.80
28171;DHT22;15458;53.346;-1.688;2022-10-16T10:42:50;15.50;87.50
28171;DHT22;15458;53.346;-1.688;2022-10-16T10:45:52;15.70;85.60
28171;DHT22;15458;53.346;-1.688;2022-10-16T10:51:28;15.90;81.90
28171;DHT22;15458;53.346;-1.688;2022-10-16T10:57:30;16.00;80.20
28171;DHT22;15458;53.346;-1.688;2022-10-16T11:05:23;16.20;77.10
28171;DHT22;15458;53.346;-1.688;2022-10-16T11:08:08;16.50;76.20
28171;DHT22;15458;53.346;-1.688;2022-10-16T11:10:55;16.70;75.70
28171;DHT22;15458;53.346;-1.688;2022-10-16T11:14:06;17.00;74.40
28171;DHT22;15458;53.346;-1.688;2022-10-16T11:16:46;17.20;73.20
28171;DHT22;15458;53.346;-1.688;2022-10-16T11:19:25;17.20;72.00
28171;DHT22;15458;53.346;-1.688;2022-10-16T11:25:00;17.30;71.40
28171;DHT22;15458;53.346;-1.688;2022-10-16T11:27:50;17.50;71.10
28171;DHT22;15458;53.346;-1.688;2022-10-16T11:30:25;17.50;69.50
28171;DHT22;15458;53.346;-1.688;2022-10-16T11:44:14;17.70;67.30
28171;DHT22;15458;53.346;-1.688;2022-10-16T11:50:10;18.20;66.20
28171;DHT22;15458;53.346;-1.688;2022-10-16T11:55:27;18.60;65.10
28171;DHT22;15458;53.346;-1.688;2022-10-16T11:58:31;18.70;64.10
28171;DHT22;15458;53.346;-1.688;2022-10-16T12:04:30;19.00;63.50
28171;DHT22;15458;53.346;-1.688;2022-10-16T12:06:44;19.10;63.10
28171;DHT22;15458;53.346;-1.688;2022-10-16T12:09:30;19.40;62.90
28171;DHT22;15458;53.346;-1.688;2022-10-16T12:12:00;19.60;61.90
28171;DHT22;15458;53.346;-1.688;2022-10-16T12:14:40;19.80;61.70
28171;DHT22;15458;53.346;-1.688;2022-10-16T12:22:59;20.00;60.00
28171;DHT22;15458;53.346;-1.688;2022-10-16T12:25:40;20.00;60.80
28171;DHT22;15458;53.346;-1.688;2022-10-16T12:28:25;20.00;60.90
28171;DHT22;15458;53.346;-1.688;2022-10-16T12:31:00;19.80;60.60
28171;DHT22;15458;53.346;-1.688;2022-10-16T12:33:31;19.40;60.60
28171;DHT22;15458;53.346;-1.688;2022-10-16T12:36:00;19.00;60.50
28171;DHT22;15458;53.346;-1.688;2022-10-16T12:41:35;18.30;61.50
28171;DHT22;15458;53.346;-1.688;2022-10-16T12:44:05;18.10;62.20
28171;DHT22;15458;53.346;-1.688;2022-10-16T12:49:34;17.70;63.40
28171;DHT22;15458;53.346;-1.688;2022-10-16T12:52:02;17.60;64.10
28171;DHT22;15458;53.346;-1.688;2022-10-16T12:54:31;17.50;64.30
28171;DHT22;15458;53.346;-1.688;2022-10-16T12:57:14;17.40;64.90
28171;DHT22;15458;53.346;-1.688;2022-10-16T13:11:16;17.10;65.10
28171;DHT22;15458;53.346;-1.688;2022-10-16T13:16:55;17.20;63.80
28171;DHT22;15458;53.346;-1.688;2022-10-16T13:19:58;17.10;64.00
28171;DHT22;15458;53.346;-1.688;2022-10-16T13:22:30;17.00;63.80
28171;DHT22;15458;53.346;-1.688;2022-10-16T13:25:22;17.00;64.20
28171;DHT22;15458;53.346;-1.688;2022-10-16T13:28:02;17.20;64.70
28171;DHT22;15458;53.346;-1.688;2022-10-16T13:30:40;17.50;64.90
28171;DHT22;15458;53.346;-1.688;2022-10-16T13:33:19;17.50;64.50
28171;DHT22;15458;53.346;-1.688;2022-10-16T13:35:55;17.40;64.70
28171;DHT22;15458;53.346;-1.688;2022-10-16T13:38:26;17.10;64.40
28171;DHT22;15458;53.346;-1.688;2022-10-16T13:41:03;16.80;64.30
28171;DHT22;15458;53.346;-1.688;2022-10-16T13:43:42;16.50;64.80
28171;DHT22;15458;53.346;-1.688;2022-10-16T13:46:18;16.40;65.60
28171;DHT22;15458;53.346;-1.688;2022-10-16T13:48:57;16.20;65.90
28171;DHT22;15458;53.346;-1.688;2022-10-16T13:51:23;16.10;66.50
28171;DHT22;15458;53.346;-1.688;2022-10-16T13:53:49;16.10;67.10
28171;DHT22;15458;53.346;-1.688;2022-10-16T13:56:20;16.00;67.50
28171;DHT22;15458;53.346;-1.688;2022-10-16T13:58:57;15.90;68.20
28171;DHT22;15458;53.346;-1.688;2022-10-16T14:01:27;15.70;68.20
28171;DHT22;15458;53.346;-1.688;2022-10-16T14:03:59;15.60;68.10
28171;DHT22;15458;53.346;-1.688;2022-10-16T14:06:26;15.60;68.50
28171;DHT22;15458;53.346;-1.688;2022-10-16T14:09:00;15.60;68.50
28171;DHT22;15458;53.346;-1.688;2022-10-16T14:11:30;15.80;68.30
28171;DHT22;15458;53.346;-1.688;2022-10-16T14:13:56;16.00;68.10
28171;DHT22;15458;53.346;-1.688;2022-10-16T14:16:29;16.30;67.90
28171;DHT22;15458;53.346;-1.688;2022-10-16T14:19:03;16.30;67.30
28171;DHT22;15458;53.346;-1.688;2022-10-16T14:21:32;16.20;67.50
28171;DHT22;15458;53.346;-1.688;2022-10-16T14:23:59;16.10;68.10
28171;DHT22;15458;53.346;-1.688;2022-10-16T14:26:28;16.00;68.40
28171;DHT22;15458;53.346;-1.688;2022-10-16T14:32:03;15.90;69.90
28171;DHT22;15458;53.346;-1.688;2022-10-16T14:34:32;15.80;70.40
28171;DHT22;15458;53.346;-1.688;2022-10-16T14:37:26;15.60;71.10
28171;DHT22;15458;53.346;-1.688;2022-10-16T14:39:55;15.50;71.90
28171;DHT22;15458;53.346;-1.688;2022-10-16T14:42:24;15.40;72.20
28171;DHT22;15458;53.346;-1.688;2022-10-16T14:44:56;15.40;72.60
28171;DHT22;15458;53.346;-1.688;2022-10-16T14:47:24;15.30;72.80
28171;DHT22;15458;53.346;-1.688;2022-10-16T14:49:53;15.20;72.90
28171;DHT22;15458;53.346;-1.688;2022-10-16T14:52:25;15.10;72.90
28171;DHT22;15458;53.346;-1.688;2022-10-16T14:54:51;15.00;72.90
28171;DHT22;15458;53.346;-1.688;2022-10-16T14:57:23;14.80;73.20
28171;DHT22;15458;53.346;-1.688;2022-10-16T14:59:49;14.70;73.40
28171;DHT22;15458;53.346;-1.688;2022-10-16T15:04:43;14.40;73.90
28171;DHT22;15458;53.346;-1.688;2022-10-16T15:07:09;14.30;73.90
28171;DHT22;15458;53.346;-1.688;2022-10-16T15:09:35;14.20;74.10
28171;DHT22;15458;53.346;-1.688;2022-10-16T15:12:03;14.20;74.30
28171;DHT22;15458;53.346;-1.688;2022-10-16T15:14:29;14.20;74.60
28171;DHT22;15458;53.346;-1.688;2022-10-16T15:16:54;14.20;74.60
28171;DHT22;15458;53.346;-1.688;2022-10-16T15:19:26;14.20;74.50
28171;DHT22;15458;53.346;-1.688;2022-10-16T15:21:51;14.20;74.90
28171;DHT22;15458;53.346;-1.688;2022-10-16T15:24:23;14.30;75.00
28171;DHT22;15458;53.346;-1.688;2022-10-16T15:26:49;14.40;75.20
28171;DHT22;15458;53.346;-1.688;2022-10-16T15:29:18;14.50;75.40
28171;DHT22;15458;53.346;-1.688;2022-10-16T15:31:46;14.60;75.80
28171;DHT22;15458;53.346;-1.688;2022-10-16T15:34:15;14.70;75.60
28171;DHT22;15458;53.346;-1.688;2022-10-16T15:36:48;14.60;75.00
28171;DHT22;15458;53.346;-1.688;2022-10-16T15:39:16;14.60;75.00
28171;DHT22;15458;53.346;-1.688;2022-10-16T15:41:46;14.70;75.50
28171;DHT22;15458;53.346;-1.688;2022-10-16T15:44:20;14.70;75.70
28171;DHT22;15458;53.346;-1.688;2022-10-16T15:46:48;14.70;76.40
28171;DHT22;15458;53.346;-1.688;2022-10-16T15:49:14;14.80;76.40
28171;DHT22;15458;53.346;-1.688;2022-10-16T15:51:41;14.90;76.50
28171;DHT22;15458;53.346;-1.688;2022-10-16T15:54:10;14.80;76.80
28171;DHT22;15458;53.346;-1.688;2022-10-16T15:56:36;14.80;77.10
28171;DHT22;15458;53.346;-1.688;2022-10-16T15:59:02;14.80;77.40
28171;DHT22;15458;53.346;-1.688;2022-10-16T16:01:32;14.70;77.70
28171;DHT22;15458;53.346;-1.688;2022-10-16T16:04:08;14.60;77.70
28171;DHT22;15458;53.346;-1.688;2022-10-16T16:06:37;14.60;78.10
28171;DHT22;15458;53.346;-1.688;2022-10-16T16:09:08;14.60;78.60
28171;DHT22;15458;53.346;-1.688;2022-10-16T16:11:33;14.50;79.00
28171;DHT22;15458;53.346;-1.688;2022-10-16T16:14:07;14.40;79.40
28171;DHT22;15458;53.346;-1.688;2022-10-16T16:16:38;14.40;79.40
28171;DHT22;15458;53.346;-1.688;2022-10-16T16:19:07;14.30;79.40
28171;DHT22;15458;53.346;-1.688;2022-10-16T16:21:34;14.20;80.20
28171;DHT22;15458;53.346;-1.688;2022-10-16T16:23:59;14.20;80.70
28171;DHT22;15458;53.346;-1.688;2022-10-16T16:26:29;14.20;81.00
28171;DHT22;15458;53.346;-1.688;2022-10-16T16:29:00;14.10;81.10
28171;DHT22;15458;53.346;-1.688;2022-10-16T16:31:27;14.10;81.40
28171;DHT22;15458;53.346;-1.688;2022-10-16T16:33:53;14.00;81.90
28171;DHT22;15458;53.346;-1.688;2022-10-16T16:36:19;14.00;82.20
28171;DHT22;15458;53.346;-1.688;2022-10-16T16:38:46;13.90;82.40
28171;DHT22;15458;53.346;-1.688;2022-10-16T16:43:41;13.80;82.90
28171;DHT22;15458;53.346;-1.688;2022-10-16T16:46:06;13.80;83.10
28171;DHT22;15458;53.346;-1.688;2022-10-16T16:48:33;13.70;82.80
28171;DHT22;15458;53.346;-1.688;2022-10-16T16:51:07;13.60;82.70
28171;DHT22;15458;53.346;-1.688;2022-10-16T16:53:36;13.50;82.50
28171;DHT22;15458;53.346;-1.688;2022-10-16T16:56:05;13.40;82.60
28171;DHT22;15458;53.346;-1.688;2022-10-16T16:58:32;13.30;83.10
28171;DHT22;15458;53.346;-1.688;2022-10-16T17:00:58;13.20;83.50
28171;DHT22;15458;53.346;-1.688;2022-10-16T17:03:28;13.10;83.90
28171;DHT22;15458;53.346;-1.688;2022-10-16T17:06:02;13.10;84.50
28171;DHT22;15458;53.346;-1.688;2022-10-16T17:08:29;13.10;84.80
28171;DHT22;15458;53.346;-1.688;2022-10-16T17:10:56;13.10;85.20
28171;DHT22;15458;53.346;-1.688;2022-10-16T17:13:26;13.00;85.70
28171;DHT22;15458;53.346;-1.688;2022-10-16T17:15:52;13.00;86.00
28171;DHT22;15458;53.346;-1.688;2022-10-16T17:18:19;12.90;86.10
28171;DHT22;15458;53.346;-1.688;2022-10-16T17:20:46;12.90;86.20
28171;DHT22;15458;53.346;-1.688;2022-10-16T17:23:13;12.90;86.90
28171;DHT22;15458;53.346;-1.688;2022-10-16T17:25:39;12.80;87.30
28171;DHT22;15458;53.346;-1.688;2022-10-16T17:28:06;12.80;87.90
28171;DHT22;15458;53.346;-1.688;2022-10-16T17:30:33;12.80;88.30
28171;DHT22;15458;53.346;-1.688;2022-10-16T17:33:00;12.70;88.90
28171;DHT22;15458;53.346;-1.688;2022-10-16T17:35:26;12.70;89.40
28171;DHT22;15458;53.346;-1.688;2022-10-16T17:37:52;12.70;90.00
28171;DHT22;15458;53.346;-1.688;2022-10-16T17:40:18;12.70;90.40
28171;DHT22;15458;53.346;-1.688;2022-10-16T17:42:44;12.70;90.70